Time;durP1;ratioP1;P1;durP2;ratioP2;P2;SDS_P1;SDS_P2;PMS_P1;PMS_P2;Temp;Humidity;BMP_temperature;BMP_pressure;BME280_temperature;BME280_humidity;BME280_pressure;Samples;Min_cycle;Max_cycle;Signal;HPM_P1;HPM_P2
2022/05/07 00:00:27;;;;;;;2.80;0.90;;;13.40;80.40;;;;;;5006663;28;20068;-77
2022/05/07 00:02:53;;;;;;;1.73;0.73;;;13.40;80.60;;;;;;5008426;28;20464;-77
2022/05/07 00:05:19;;;;;;;1.75;0.80;;;13.40;80.60;;;;;;5009224;28;20049;-78
2022/05/07 00:07:45;;;;;;;2.33;0.88;;;13.40;80.70;;;;;;5009709;28;20034;-76
2022/05/07 00:10:11;;;;;;;2.90;0.90;;;13.40;81.00;;;;;;5006182;28;20765;-76
2022/05/07 00:12:37;;;;;;;2.38;1.00;;;13.40;81.00;;;;;;5037432;28;20036;-76
2022/05/07 00:15:03;;;;;;;3.08;1.17;;;13.40;81.00;;;;;;5008804;28;20034;-75
2022/05/07 00:20:13;;;;;;;3.15;1.10;;;13.40;81.50;;;;;;5008964;28;20032;-75
2022/05/07 00:22:39;;;;;;;1.80;1.00;;;13.40;81.30;;;;;;5006395;28;20029;-76
2022/05/07 00:25:05;;;;;;;1.98;0.88;;;13.40;81.30;;;;;;5005285;28;20037;-76
2022/05/07 00:27:31;;;;;;;1.73;1.05;;;13.40;81.40;;;;;;5026742;28;20627;-75
2022/05/07 00:29:56;;;;;;;3.53;1.08;;;13.30;81.50;;;;;;5004345;28;20128;-76
2022/05/07 00:32:22;;;;;;;2.28;1.10;;;13.40;81.50;;;;;;5037299;28;20057;-77
2022/05/07 00:34:47;;;;;;;3.45;1.10;;;13.40;81.60;;;;;;5004908;28;20030;-75
2022/05/07 00:37:13;;;;;;;3.25;1.10;;;13.40;81.70;;;;;;5005108;28;20037;-76
2022/05/07 00:39:39;;;;;;;2.67;1.10;;;13.40;82.00;;;;;;4996451;28;20065;-76
2022/05/07 00:42:06;;;;;;;2.28;1.23;;;13.40;82.40;;;;;;4996068;28;20045;-75
2022/05/07 00:44:33;;;;;;;3.75;1.10;;;13.40;82.80;;;;;;5003458;28;20027;-76
2022/05/07 00:47:08;;;;;;;2.53;1.20;;;13.40;83.30;;;;;;5006139;28;20022;-76
2022/05/07 00:49:34;;;;;;;2.47;1.13;;;13.30;83.10;;;;;;5007451;28;20041;-76
2022/05/07 00:52:00;;;;;;;2.60;1.20;;;13.30;83.30;;;;;;5006119;28;20400;-76
2022/05/07 00:54:25;;;;;;;3.40;1.00;;;13.30;83.60;;;;;;5004163;28;20038;-76
2022/05/07 00:56:51;;;;;;;3.88;1.27;;;13.20;83.20;;;;;;5004635;28;20476;-76
2022/05/07 00:59:17;;;;;;;4.22;1.38;;;13.20;83.30;;;;;;5007379;28;20030;-77
2022/05/07 01:01:43;;;;;;;2.28;1.13;;;13.20;83.80;;;;;;5000201;28;20034;-76
2022/05/07 01:04:09;;;;;;;4.95;1.33;;;13.20;83.60;;;;;;5003340;28;20037;-76
2022/05/07 01:06:35;;;;;;;1.67;1.00;;;13.10;83.70;;;;;;5010820;28;20040;-75
2022/05/07 01:09:01;;;;;;;4.97;1.58;;;13.10;83.70;;;;;;5001816;28;20540;-76
2022/05/07 01:11:27;;;;;;;2.58;1.30;;;13.10;83.90;;;;;;5020591;28;20073;-76
2022/05/07 01:13:53;;;;;;;3.53;1.42;;;13.00;84.50;;;;;;5005880;28;20877;-76
2022/05/07 01:16:18;;;;;;;4.05;1.30;;;13.00;84.00;;;;;;5038621;28;20029;-77
2022/05/07 01:18:44;;;;;;;3.13;1.40;;;13.00;84.20;;;;;;5007999;28;20085;-76
2022/05/07 01:21:15;;;;;;;3.10;1.40;;;13.00;84.30;;;;;;4996796;28;20080;-77
2022/05/07 01:23:43;;;;;;;3.38;1.38;;;12.90;84.50;;;;;;5004380;28;20033;-76
2022/05/07 01:26:09;;;;;;;2.17;1.30;;;12.90;84.60;;;;;;5007079;28;20045;-76
2022/05/07 01:28:35;;;;;;;3.17;1.20;;;12.90;84.80;;;;;;5005920;28;20210;-76
2022/05/07 01:31:01;;;;;;;3.10;1.42;;;12.90;85.00;;;;;;5005394;28;20026;-76
2022/05/07 01:33:27;;;;;;;4.47;1.50;;;12.80;84.80;;;;;;5003699;28;20083;-77
2022/05/07 01:35:53;;;;;;;2.88;1.65;;;12.80;85.00;;;;;;5006179;28;20435;-76
2022/05/07 01:38:19;;;;;;;3.55;1.58;;;12.80;85.30;;;;;;5007260;28;20034;-76
2022/05/07 01:40:44;;;;;;;6.20;1.77;;;12.70;86.10;;;;;;5005918;28;20037;-76
2022/05/07 01:43:10;;;;;;;3.58;1.50;;;12.60;86.70;;;;;;5002421;28;20040;-76
2022/05/07 01:45:36;;;;;;;3.33;1.50;;;12.50;87.20;;;;;;5003522;28;20455;-76
2022/05/07 01:48:10;;;;;;;4.20;1.40;;;12.40;87.00;;;;;;5007496;28;20037;-76
2022/05/07 01:50:40;;;;;;;4.47;1.60;;;12.40;87.50;;;;;;5006030;28;20033;-76
2022/05/07 01:53:08;;;;;;;3.42;1.42;;;12.30;87.80;;;;;;5005712;28;20081;-76
2022/05/07 01:55:34;;;;;;;3.13;1.45;;;12.30;87.80;;;;;;5008601;28;20839;-76
2022/05/07 01:58:00;;;;;;;2.28;1.17;;;12.30;87.80;;;;;;5010438;28;20033;-75
2022/05/07 02:00:26;;;;;;;3.35;1.50;;;12.30;88.10;;;;;;5041978;28;20057;-76
2022/05/07 02:02:52;;;;;;;3.33;1.30;;;12.40;88.00;;;;;;5010321;28;20495;-75
2022/05/07 02:05:18;;;;;;;3.15;1.48;;;12.30;88.30;;;;;;5007067;28;20034;-76
2022/05/07 02:07:44;;;;;;;3.88;1.58;;;12.30;88.20;;;;;;5008700;28;20030;-75
2022/05/07 02:10:10;;;;;;;3.13;1.42;;;12.40;88.10;;;;;;5008946;28;20038;-75
2022/05/07 02:12:36;;;;;;;4.22;1.40;;;12.40;87.40;;;;;;5005881;28;20395;-75
2022/05/07 02:15:02;;;;;;;4.18;1.60;;;12.50;87.00;;;;;;5010907;28;20053;-75
2022/05/07 02:17:28;;;;;;;3.90;1.35;;;12.50;86.70;;;;;;5042062;28;20107;-77
2022/05/07 02:19:53;;;;;;;3.70;1.40;;;12.60;87.10;;;;;;5009026;28;20423;-75
2022/05/07 02:22:19;;;;;;;4.53;1.67;;;12.60;86.50;;;;;;5004545;28;20477;-75
2022/05/07 02:24:46;;;;;;;3.78;1.67;;;12.60;86.80;;;;;;5006680;28;20030;-76
2022/05/07 02:27:12;;;;;;;4.00;1.63;;;12.60;86.90;;;;;;5009803;28;20034;-75
2022/05/07 02:29:37;;;;;;;6.03;1.80;;;12.60;87.10;;;;;;5007855;28;20100;-75
2022/05/07 02:32:04;;;;;;;3.92;1.40;;;12.60;87.30;;;;;;5006648;28;20041;-76
2022/05/07 02:34:34;;;;;;;3.63;1.80;;;12.50;87.70;;;;;;5007580;28;20759;-76
2022/05/07 02:37:00;;;;;;;3.75;1.98;;;12.50;87.80;;;;;;5023195;28;20036;-76
2022/05/07 02:39:27;;;;;;;3.78;1.65;;;12.50;87.90;;;;;;5009499;28;20040;-76
2022/05/07 02:44:37;;;;;;;3.83;1.73;;;12.50;88.80;;;;;;5006548;28;20152;-75
2022/05/07 02:47:04;;;;;;;3.95;1.50;;;12.40;89.70;;;;;;5025428;28;20034;-76
2022/05/07 02:49:30;;;;;;;4.05;1.83;;;12.30;89.90;;;;;;5039690;28;20361;-75
2022/05/07 02:51:56;;;;;;;3.55;1.80;;;12.30;90.20;;;;;;5004193;28;20468;-76
2022/05/07 02:54:22;;;;;;;4.30;1.75;;;12.20;90.30;;;;;;5006697;28;20044;-75
2022/05/07 02:56:47;;;;;;;4.35;1.73;;;12.20;90.50;;;;;;5006630;28;20022;-76
2022/05/07 02:59:13;;;;;;;2.72;1.40;;;12.20;90.40;;;;;;5040629;28;20540;-76
2022/05/07 03:01:41;;;;;;;4.97;2.00;;;12.30;90.40;;;;;;5008267;28;20380;-75
2022/05/07 03:04:08;;;;;;;4.75;1.70;;;12.30;90.30;;;;;;4998126;28;20030;-76
2022/05/07 03:06:34;;;;;;;5.53;1.75;;;12.30;90.00;;;;;;5009945;28;20041;-76
2022/05/07 03:09:00;;;;;;;4.68;1.90;;;12.30;90.00;;;;;;5010041;28;20034;-76
2022/05/07 03:11:26;;;;;;;4.13;1.65;;;12.30;89.80;;;;;;5010510;28;20065;-76
2022/05/07 03:13:52;;;;;;;4.15;1.80;;;12.30;89.80;;;;;;5040075;28;20034;-76
2022/05/07 03:16:17;;;;;;;3.75;1.70;;;12.30;90.10;;;;;;5009817;28;20465;-77
2022/05/07 03:18:43;;;;;;;6.38;1.98;;;12.30;90.10;;;;;;5002303;28;20037;-76
2022/05/07 03:21:09;;;;;;;4.00;1.77;;;12.30;90.10;;;;;;5019485;28;20065;-76
2022/05/07 03:23:35;;;;;;;4.22;1.70;;;12.30;90.00;;;;;;5009253;28;20046;-76
2022/05/07 03:26:00;;;;;;;4.75;1.90;;;12.30;90.10;;;;;;5008597;28;20025;-76
2022/05/07 03:28:26;;;;;;;5.00;2.13;;;12.30;90.10;;;;;;5007807;28;20036;-77
2022/05/07 03:30:52;;;;;;;3.85;1.80;;;12.20;90.00;;;;;;5007126;28;20038;-77
2022/05/07 03:33:17;;;;;;;3.65;1.58;;;12.20;89.90;;;;;;5007515;28;20083;-76
2022/05/07 03:35:47;;;;;;;5.47;1.80;;;12.20;90.20;;;;;;5007959;28;20029;-76
2022/05/07 03:38:12;;;;;;;3.60;2.05;;;12.20;90.20;;;;;;5038179;28;20030;-76
2022/05/07 03:40:38;;;;;;;3.30;1.90;;;12.20;90.20;;;;;;5040189;28;20038;-77
2022/05/07 03:43:05;;;;;;;3.97;1.80;;;12.20;90.20;;;;;;5009476;28;20045;-76
2022/05/07 03:45:31;;;;;;;4.18;2.05;;;12.20;90.40;;;;;;5008451;28;20037;-76
2022/05/07 03:47:57;;;;;;;5.13;2.03;;;12.20;90.40;;;;;;5008812;28;20678;-76
2022/05/07 03:50:23;;;;;;;4.13;1.90;;;12.20;90.30;;;;;;5031049;28;20465;-76
2022/05/07 03:55:33;;;;;;;4.68;2.10;;;12.20;90.90;;;;;;5007271;28;20068;-76
2022/05/07 03:57:58;;;;;;;3.42;2.00;;;12.20;90.40;;;;;;5001546;28;20055;-77
2022/05/07 04:00:24;;;;;;;3.25;1.95;;;12.20;90.20;;;;;;5004278;28;20491;-77
2022/05/07 04:02:49;;;;;;;6.00;2.33;;;12.20;90.40;;;;;;5009083;28;20080;-76
2022/05/07 04:05:15;;;;;;;6.53;2.60;;;12.20;90.80;;;;;;5009019;28;20037;-76
2022/05/07 04:07:41;;;;;;;5.28;2.47;;;12.10;90.80;;;;;;5008037;28;21052;-76
2022/05/07 04:10:07;;;;;;;5.75;2.65;;;12.10;90.70;;;;;;5007034;28;20030;-76
2022/05/07 04:12:33;;;;;;;5.18;2.28;;;12.10;91.10;;;;;;5037612;28;20124;-76
2022/05/07 04:15:00;;;;;;;5.35;2.60;;;12.10;90.90;;;;;;5008767;28;20554;-76
2022/05/07 04:17:26;;;;;;;6.53;3.20;;;12.00;91.10;;;;;;5005214;28;20579;-77
2022/05/07 04:19:52;;;;;;;5.85;3.28;;;12.00;91.20;;;;;;5008750;28;20029;-76
2022/05/07 04:22:18;;;;;;;8.60;3.90;;;12.00;91.30;;;;;;5006752;28;20034;-76
2022/05/07 04:24:44;;;;;;;9.23;3.40;;;11.90;91.40;;;;;;5039775;28;20037;-77
2022/05/07 04:27:10;;;;;;;7.60;3.53;;;11.90;91.40;;;;;;5004656;28;20033;-77
2022/05/07 04:29:35;;;;;;;6.53;3.38;;;11.80;91.60;;;;;;5007230;28;20042;-76
2022/05/07 04:32:02;;;;;;;7.70;3.00;;;11.90;91.70;;;;;;5002605;28;20033;-77
2022/05/07 04:34:29;;;;;;;7.63;3.40;;;11.90;91.60;;;;;;5004937;28;20487;-76
2022/05/07 04:36:58;;;;;;;8.43;3.08;;;11.90;91.40;;;;;;5007136;28;20061;-77
2022/05/07 04:39:23;;;;;;;7.70;3.33;;;11.90;91.70;;;;;;5007110;28;20030;-76
2022/05/07 04:41:49;;;;;;;8.18;2.90;;;11.90;91.80;;;;;;5005996;28;20045;-77
2022/05/07 04:44:15;;;;;;;5.90;2.78;;;11.90;91.60;;;;;;5007956;28;20030;-76
2022/05/07 04:46:41;;;;;;;7.43;3.13;;;12.00;91.30;;;;;;5007976;28;20113;-76
2022/05/07 04:49:07;;;;;;;7.88;3.30;;;12.00;91.40;;;;;;5008414;28;20109;-77
2022/05/07 04:51:32;;;;;;;5.68;2.83;;;12.00;91.60;;;;;;5006290;28;20724;-76
2022/05/07 04:53:58;;;;;;;5.50;2.97;;;12.10;91.60;;;;;;5039250;28;20551;-76
2022/05/07 04:56:24;;;;;;;6.50;2.90;;;12.10;91.50;;;;;;5006132;28;20040;-75
2022/05/07 04:58:51;;;;;;;5.13;2.42;;;12.10;91.20;;;;;;5003048;28;20034;-76
2022/05/07 05:01:17;;;;;;;4.80;2.53;;;12.20;91.10;;;;;;5038474;28;20038;-76
2022/05/07 05:03:43;;;;;;;5.57;2.60;;;12.20;90.90;;;;;;5003974;28;20044;-75
2022/05/07 05:06:08;;;;;;;5.03;2.67;;;12.30;90.80;;;;;;5005630;28;20045;-76
2022/05/07 05:08:34;;;;;;;3.85;2.42;;;12.30;90.70;;;;;;5007804;28;20040;-76
2022/05/07 05:11:00;;;;;;;5.40;2.60;;;12.30;90.60;;;;;;5007530;28;20042;-76
2022/05/07 05:13:25;;;;;;;5.00;2.40;;;12.30;90.50;;;;;;5007222;28;20046;-76
2022/05/07 05:15:51;;;;;;;4.88;2.40;;;12.40;90.40;;;;;;5022057;28;20033;-75
2022/05/07 05:18:17;;;;;;;3.65;1.95;;;12.40;90.30;;;;;;5005470;28;20496;-76
2022/05/07 05:20:42;;;;;;;4.40;2.33;;;12.40;90.20;;;;;;5006957;28;20029;-76
2022/05/07 05:23:09;;;;;;;4.32;2.30;;;12.50;90.20;;;;;;5007647;28;20591;-76
2022/05/07 05:25:34;;;;;;;5.38;2.40;;;12.50;90.10;;;;;;5007072;28;20033;-76
2022/05/07 05:28:00;;;;;;;4.88;2.30;;;12.50;90.00;;;;;;5008265;28;20376;-76
2022/05/07 05:30:26;;;;;;;4.55;2.42;;;12.60;90.00;;;;;;5011122;28;20037;-77
2022/05/07 05:32:51;;;;;;;4.68;2.53;;;12.50;89.80;;;;;;5011271;28;20038;-77
2022/05/07 05:35:17;;;;;;;3.53;2.00;;;12.50;90.10;;;;;;5004669;28;20065;-76
2022/05/07 05:37:43;;;;;;;4.35;2.40;;;12.50;90.00;;;;;;5010832;28;20033;-76
2022/05/07 05:40:08;;;;;;;3.92;2.10;;;12.50;90.10;;;;;;5010450;28;20054;-76
2022/05/07 05:42:34;;;;;;;4.57;2.25;;;12.50;90.10;;;;;;5011820;28;20053;-76
2022/05/07 05:45:00;;;;;;;5.20;2.47;;;12.50;90.10;;;;;;5000921;28;20026;-77
2022/05/07 05:47:25;;;;;;;4.97;2.40;;;12.50;90.10;;;;;;5001570;28;20058;-77
2022/05/07 05:49:52;;;;;;;4.30;2.50;;;12.50;90.10;;;;;;5025508;28;20067;-76
2022/05/07 05:52:18;;;;;;;4.15;2.30;;;12.50;90.10;;;;;;4999486;28;20044;-76
2022/05/07 05:54:45;;;;;;;4.68;2.60;;;12.50;90.00;;;;;;5039616;28;20145;-77
2022/05/07 05:57:10;;;;;;;5.68;2.50;;;12.60;90.00;;;;;;5008455;28;20040;-76
2022/05/07 05:59:36;;;;;;;4.70;2.50;;;12.60;89.80;;;;;;5041349;28;20113;-76
2022/05/07 06:02:02;;;;;;;5.30;2.60;;;12.70;89.80;;;;;;5004452;28;20033;-76
2022/05/07 06:04:28;;;;;;;4.45;2.58;;;12.70;89.70;;;;;;5010561;28;20149;-76
2022/05/07 06:06:53;;;;;;;4.53;2.40;;;12.80;89.70;;;;;;5004242;28;20452;-76
2022/05/07 06:09:21;;;;;;;5.45;2.55;;;13.00;89.60;;;;;;5008095;28;20029;-77
2022/05/07 06:11:47;;;;;;;6.38;2.38;;;13.10;89.10;;;;;;5007594;28;20068;-76
2022/05/07 06:14:12;;;;;;;4.45;2.53;;;13.20;88.90;;;;;;5010988;28;20033;-76
2022/05/07 06:16:38;;;;;;;5.45;2.60;;;13.20;88.90;;;;;;5004293;28;20107;-76
2022/05/07 06:19:04;;;;;;;7.30;2.90;;;13.30;88.70;;;;;;5008261;28;20090;-76
2022/05/07 06:21:30;;;;;;;6.65;2.58;;;13.40;88.60;;;;;;5007804;28;20484;-76
2022/05/07 06:23:55;;;;;;;4.95;2.42;;;13.40;89.00;;;;;;5002711;28;20036;-75
2022/05/07 06:29:06;;;;;;;5.07;2.70;;;13.40;88.80;;;;;;5005054;28;20180;-76
2022/05/07 06:31:31;;;;;;;5.40;2.72;;;13.40;89.30;;;;;;5001830;28;20116;-76
2022/05/07 06:33:58;;;;;;;7.15;2.50;;;13.30;89.30;;;;;;5004108;28;20396;-75
2022/05/07 06:36:23;;;;;;;5.00;2.60;;;13.40;89.50;;;;;;5003020;28;20034;-76
2022/05/07 06:38:49;;;;;;;5.68;2.55;;;13.60;88.30;;;;;;5003098;28;20431;-76
2022/05/07 06:41:15;;;;;;;6.20;2.53;;;13.70;87.80;;;;;;5001739;28;20034;-77
2022/05/07 06:43:40;;;;;;;5.55;2.30;;;13.90;87.40;;;;;;5031263;28;20025;-77
2022/05/07 06:46:06;;;;;;;5.68;2.88;;;14.20;86.50;;;;;;5007308;28;20044;-76
2022/05/07 06:48:32;;;;;;;5.75;2.72;;;14.40;85.80;;;;;;5007146;28;20048;-77
2022/05/07 06:50:57;;;;;;;5.50;3.45;;;14.40;85.30;;;;;;5003846;28;20071;-77
2022/05/07 06:53:23;;;;;;;7.07;3.75;;;14.30;85.00;;;;;;5005373;28;20041;-75
2022/05/07 06:55:55;;;;;;;7.50;3.85;;;14.30;85.60;;;;;;5012470;28;20029;-76
2022/05/07 06:58:22;;;;;;;6.55;4.00;;;14.10;86.10;;;;;;4998087;28;20032;-76
2022/05/07 07:00:47;;;;;;;7.63;3.80;;;14.30;86.40;;;;;;5008206;28;20026;-76
2022/05/07 07:03:13;;;;;;;6.35;3.78;;;14.50;86.30;;;;;;5001300;28;20036;-78
2022/05/07 07:05:39;;;;;;;5.80;3.80;;;14.80;85.50;;;;;;5007309;28;20029;-76
2022/05/07 07:08:05;;;;;;;7.35;4.28;;;15.10;83.50;;;;;;5003299;28;20141;-77
2022/05/07 07:10:30;;;;;;;6.05;4.10;;;15.30;83.40;;;;;;5003169;28;20102;-75
2022/05/07 07:12:56;;;;;;;8.15;4.50;;;15.60;82.50;;;;;;5006835;28;20141;-76
2022/05/07 07:15:23;;;;;;;6.88;4.43;;;15.80;81.60;;;;;;5009170;28;20105;-77
2022/05/07 07:17:49;;;;;;;6.55;4.03;;;16.10;82.40;;;;;;4997448;28;20030;-76
2022/05/07 07:20:15;;;;;;;6.25;4.47;;;16.30;79.60;;;;;;5004704;28;20133;-76
2022/05/07 07:22:41;;;;;;;5.40;3.92;;;16.30;78.90;;;;;;5009690;28;20057;-75
2022/05/07 07:25:07;;;;;;;6.00;3.95;;;16.20;79.60;;;;;;5010642;28;20043;-75
2022/05/07 07:27:34;;;;;;;5.47;3.88;;;16.10;80.20;;;;;;5001167;28;20030;-76
2022/05/07 07:30:00;;;;;;;6.38;3.50;;;16.20;80.00;;;;;;5002694;28;20484;-77
2022/05/07 07:32:25;;;;;;;4.40;2.83;;;16.60;79.40;;;;;;5020536;28;20040;-74
2022/05/07 07:34:51;;;;;;;5.88;3.53;;;16.80;77.40;;;;;;5023518;28;20674;-75
2022/05/07 07:37:17;;;;;;;4.90;2.97;;;17.00;76.80;;;;;;5013301;28;20143;-77
2022/05/07 07:39:42;;;;;;;5.00;3.10;;;17.00;76.40;;;;;;5006964;28;20029;-76
2022/05/07 07:42:08;;;;;;;5.18;2.90;;;17.00;76.10;;;;;;4999116;28;20049;-75
2022/05/07 07:44:34;;;;;;;4.70;3.10;;;16.90;76.00;;;;;;5004646;28;20483;-75
2022/05/07 07:49:44;;;;;;;5.35;3.28;;;16.80;77.10;;;;;;5002170;28;20073;-76
2022/05/07 07:52:09;;;;;;;5.60;2.60;;;16.90;77.30;;;;;;5003403;28;20412;-76
2022/05/07 07:54:35;;;;;;;4.82;2.50;;;16.90;75.20;;;;;;4995783;28;20072;-76
2022/05/07 07:57:02;;;;;;;3.85;2.83;;;16.90;76.20;;;;;;5007237;28;20114;-79
2022/05/07 07:59:29;;;;;;;5.82;2.90;;;16.90;75.80;;;;;;5002412;28;20053;-75
2022/05/07 08:01:56;;;;;;;4.15;2.50;;;17.00;76.10;;;;;;5003968;28;20036;-75
2022/05/07 08:04:25;;;;;;;5.03;2.88;;;17.10;76.40;;;;;;5002737;28;20022;-75
2022/05/07 08:11:40;;;;;;;5.45;2.97;;;17.10;74.90;;;;;;5004331;28;20057;-79
2022/05/07 08:12:21;;;;;;;4.45;2.58;;;17.00;75.80;;;;;;5001462;28;20140;-76
2022/05/07 08:14:47;;;;;;;6.55;2.50;;;17.20;75.60;;;;;;5001480;28;20117;-75
2022/05/07 08:17:14;;;;;;;3.45;2.50;;;17.50;76.60;;;;;;5005077;28;20381;-76
2022/05/07 08:19:40;;;;;;;3.97;2.60;;;17.80;73.40;;;;;;5000356;28;20041;-76
2022/05/07 08:22:05;;;;;;;3.67;2.03;;;18.10;72.80;;;;;;5001520;28;20037;-76
2022/05/07 08:24:31;;;;;;;4.35;2.13;;;18.50;70.80;;;;;;5004666;28;20026;-77
2022/05/07 08:26:57;;;;;;;4.28;2.53;;;18.80;69.30;;;;;;5004565;28;20488;-76
2022/05/07 08:29:23;;;;;;;3.67;2.30;;;18.80;69.30;;;;;;5005797;28;20060;-74
2022/05/07 08:31:50;;;;;;;5.30;2.30;;;18.90;68.80;;;;;;5003612;28;20039;-76
2022/05/07 08:34:16;;;;;;;4.93;2.67;;;18.90;68.30;;;;;;5003438;28;21301;-76
2022/05/07 08:36:42;;;;;;;4.57;2.22;;;19.00;68.60;;;;;;4999965;28;20065;-77
2022/05/07 08:39:08;;;;;;;3.25;2.10;;;19.10;68.70;;;;;;5003716;28;20428;-75
2022/05/07 08:41:34;;;;;;;2.85;1.75;;;19.10;67.10;;;;;;5002149;28;20045;-74
2022/05/07 08:44:01;;;;;;;3.05;1.77;;;18.90;68.30;;;;;;5004559;28;20033;-75
2022/05/07 08:46:27;;;;;;;2.72;1.63;;;18.60;68.20;;;;;;5004648;28;20022;-75
2022/05/07 08:48:54;;;;;;;5.38;1.90;;;18.30;69.30;;;;;;5005621;28;20037;-76
2022/05/07 08:51:21;;;;;;;2.83;1.80;;;18.00;70.10;;;;;;5001896;28;20038;-74
2022/05/07 08:53:49;;;;;;;3.67;2.08;;;17.70;71.00;;;;;;5004933;28;20038;-76
2022/05/07 08:56:15;;;;;;;10.05;2.22;;;17.50;72.50;;;;;;5014909;28;20111;-76
2022/05/07 08:58:48;;;;;;;3.80;2.28;;;17.30;73.70;;;;;;5003602;28;20026;-76
2022/05/07 09:01:13;;;;;;;3.80;2.30;;;17.20;74.60;;;;;;5020569;28;20030;-74
2022/05/07 09:03:46;;;;;;;3.60;2.05;;;17.20;74.40;;;;;;4999565;28;20645;-74
2022/05/07 09:06:24;;;;;;;4.32;1.85;;;17.20;73.40;;;;;;4999418;28;20786;-73
2022/05/07 09:08:51;;;;;;;5.03;1.88;;;17.30;73.20;;;;;;4997447;28;20479;-74
2022/05/07 09:11:18;;;;;;;3.30;1.92;;;17.60;74.30;;;;;;5002571;28;20035;-76
2022/05/07 09:13:46;;;;;;;4.10;2.10;;;18.00;72.40;;;;;;5000493;28;20051;-74
2022/05/07 09:16:12;;;;;;;3.67;1.63;;;18.50;70.20;;;;;;5003179;28;20558;-77
2022/05/07 09:18:38;;;;;;;2.58;1.40;;;19.00;70.10;;;;;;5017668;28;20034;-74
2022/05/07 09:21:16;;;;;;;1.55;1.08;;;19.30;65.10;;;;;;5002411;28;20026;-73
2022/05/07 09:23:57;;;;;;;1.45;1.02;;;19.30;65.00;;;;;;5001701;28;20045;-74
2022/05/07 09:26:30;;;;;;;1.95;0.98;;;19.20;64.70;;;;;;4997110;28;20105;-75
2022/05/07 09:28:57;;;;;;;2.00;1.10;;;19.10;65.60;;;;;;5004408;28;20037;-74
2022/05/07 09:31:23;;;;;;;2.88;1.38;;;19.10;67.20;;;;;;5006824;28;20029;-76
2022/05/07 09:33:49;;;;;;;2.60;1.25;;;19.20;66.00;;;;;;5002126;28;20054;-75
2022/05/07 09:36:14;;;;;;;2.72;1.20;;;19.00;65.90;;;;;;5004835;28;20068;-73
2022/05/07 09:38:40;;;;;;;2.25;1.00;;;18.90;66.00;;;;;;5002069;28;20450;-74
2022/05/07 09:41:06;;;;;;;2.80;1.10;;;18.70;66.00;;;;;;4999330;28;20030;-76
2022/05/07 09:43:32;;;;;;;1.85;1.00;;;18.50;67.50;;;;;;5004973;28;20032;-74
2022/05/07 09:45:58;;;;;;;2.55;1.20;;;18.50;67.10;;;;;;5000660;28;20030;-78
2022/05/07 09:48:24;;;;;;;2.78;1.30;;;18.40;66.90;;;;;;5001691;28;20049;-75
2022/05/07 09:50:50;;;;;;;2.60;1.10;;;18.20;67.80;;;;;;4995696;28;20384;-76
2022/05/07 09:58:49;;;;;;;2.60;1.50;;;18.10;69.00;;;;;;4997874;28;20033;-77
2022/05/07 10:01:20;;;;;;;3.08;1.20;;;18.10;69.80;;;;;;5006692;28;20030;-76
2022/05/07 10:04:13;;;;;;;2.13;1.20;;;18.10;69.20;;;;;;5012954;28;20132;-76
2022/05/07 10:07:03;;;;;;;4.13;1.10;;;18.30;67.80;;;;;;5011407;28;20029;-76
2022/05/07 10:10:02;;;;;;;2.13;1.02;;;18.50;67.80;;;;;;5003897;28;20019;-76
2022/05/07 10:12:28;;;;;;;1.67;0.70;;;18.80;65.70;;;;;;5005490;28;20045;-76
2022/05/07 10:15:05;;;;;;;1.38;0.70;;;19.00;64.10;;;;;;5006613;28;20065;-74
2022/05/07 10:17:31;;;;;;;2.30;0.88;;;19.00;61.70;;;;;;5007003;28;20030;-76
2022/05/07 10:20:05;;;;;;;1.70;0.80;;;19.10;63.90;;;;;;5001273;28;20504;-76
2022/05/07 10:22:31;;;;;;;4.30;0.85;;;19.50;64.50;;;;;;5008936;28;20025;-77
2022/05/07 10:25:08;;;;;;;0.85;0.50;;;20.00;61.50;;;;;;5025818;28;20038;-78
2022/05/07 10:27:43;;;;;;;1.17;0.60;;;20.40;58.40;;;;;;5004229;28;20387;-76
2022/05/07 10:30:09;;;;;;;1.02;0.52;;;20.50;58.10;;;;;;5005494;28;20033;-77
2022/05/07 10:32:56;;;;;;;1.83;0.90;;;20.30;58.10;;;;;;4999430;28;20030;-76
2022/05/07 10:35:44;;;;;;;1.45;0.80;;;19.90;60.30;;;;;;5005615;28;20038;-76
2022/05/07 10:38:33;;;;;;;2.35;0.63;;;19.40;60.70;;;;;;5018575;28;20429;-78
2022/05/07 10:40:59;;;;;;;1.15;0.68;;;19.00;61.60;;;;;;5006961;28;20029;-77
2022/05/07 10:43:25;;;;;;;4.07;0.90;;;18.60;61.60;;;;;;5032602;28;20149;-77
2022/05/07 10:45:56;;;;;;;4.57;1.08;;;18.40;63.70;;;;;;5011065;28;20125;-77
2022/05/07 10:48:22;;;;;;;2.13;0.98;;;18.10;65.80;;;;;;5006171;28;20044;-78
2022/05/07 10:50:58;;;;;;;1.30;0.90;;;17.90;65.90;;;;;;5007163;28;20041;-74
2022/05/07 10:53:37;;;;;;;1.88;0.90;;;17.70;67.60;;;;;;5007926;28;20065;-75
2022/05/07 10:56:03;;;;;;;2.17;1.30;;;17.50;67.20;;;;;;4996225;28;20031;-76
2022/05/07 10:58:29;;;;;;;2.15;1.30;;;17.40;69.30;;;;;;5018096;28;20088;-74
2022/05/07 11:00:58;;;;;;;2.65;1.50;;;17.20;70.30;;;;;;5024079;28;20030;-76
2022/05/07 11:03:27;;;;;;;3.30;1.70;;;17.00;69.80;;;;;;5009094;28;20168;-75
2022/05/07 11:06:00;;;;;;;;;;;16.90;71.60;;;;;;5005319;28;20387;-77
2022/05/07 11:08:29;;;;;;;3.25;1.52;;;16.80;71.20;;;;;;4999590;28;19917;-79
2022/05/07 11:11:10;;;;;;;3.78;1.70;;;16.70;71.80;;;;;;5007037;28;20530;-77
2022/05/07 11:13:45;;;;;;;3.40;1.33;;;16.60;72.20;;;;;;5007559;28;20112;-75
2022/05/07 11:16:11;;;;;;;6.25;1.55;;;16.50;72.70;;;;;;5008443;28;20037;-76
2022/05/07 11:18:40;;;;;;;2.72;1.65;;;16.40;73.40;;;;;;5003299;28;20026;-77
2022/05/07 11:21:06;;;;;;;3.33;1.45;;;16.30;73.70;;;;;;5009807;28;20219;-76
2022/05/07 11:23:45;;;;;;;3.47;1.85;;;16.30;74.20;;;;;;5006708;28;20022;-77
2022/05/07 11:26:20;;;;;;;2.83;1.52;;;16.20;74.40;;;;;;5001947;28;20502;-76
2022/05/07 11:28:46;;;;;;;3.45;1.95;;;16.20;74.70;;;;;;5024766;28;20030;-77
2022/05/07 11:31:28;;;;;;;4.00;2.00;;;16.10;74.30;;;;;;5037778;28;20056;-75
2022/05/07 11:34:07;;;;;;;3.55;2.08;;;16.10;74.90;;;;;;5025000;28;20480;-78
2022/05/07 11:36:34;;;;;;;4.00;2.00;;;16.10;74.80;;;;;;5032437;28;20052;-77
2022/05/07 11:39:04;;;;;;;2.78;1.80;;;16.10;74.30;;;;;;5003702;28;20034;-76
2022/05/07 11:41:31;;;;;;;3.20;1.77;;;16.10;75.20;;;;;;5011312;28;20442;-76
2022/05/07 11:46:54;;;;;;;4.20;2.35;;;16.10;76.10;;;;;;5008311;28;20060;-76
2022/05/07 11:49:33;;;;;;;4.05;2.10;;;16.10;75.90;;;;;;5035596;28;20388;-77
2022/05/07 11:52:12;;;;;;;8.87;2.30;;;16.10;75.70;;;;;;5021723;28;20030;-76
2022/05/07 11:54:51;;;;;;;6.40;2.53;;;16.10;75.90;;;;;;4989982;28;20038;-77
2022/05/07 11:57:30;;;;;;;5.97;2.27;;;16.10;76.80;;;;;;5006751;28;20035;-76
2022/05/07 11:59:57;;;;;;;9.77;3.25;;;16.10;78.30;;;;;;4999805;28;20367;-76
2022/05/07 12:02:23;;;;;;;6.18;2.38;;;16.10;80.00;;;;;;4997970;28;20025;-77
2022/05/07 12:05:00;;;;;;;4.45;2.55;;;16.00;81.20;;;;;;5007056;28;20026;-77
2022/05/07 12:07:25;;;;;;;4.25;2.60;;;16.00;82.40;;;;;;5004182;28;20037;-77
2022/05/07 12:09:51;;;;;;;5.13;2.60;;;15.90;82.30;;;;;;4999638;28;20464;-76
2022/05/07 12:12:16;;;;;;;4.25;2.25;;;15.80;81.90;;;;;;5010957;28;20072;-77
2022/05/07 12:14:42;;;;;;;3.90;2.38;;;15.80;82.90;;;;;;5004894;28;20638;-77
2022/05/07 12:19:52;;;;;;;3.80;2.33;;;15.90;82.70;;;;;;4999867;28;20087;-77
2022/05/07 12:30:30;;;;;;;3.25;1.67;;;16.30;76.80;;;;;;5007514;28;20160;-78
2022/05/07 12:32:55;;;;;;;2.80;1.70;;;16.40;76.80;;;;;;5001004;28;20042;-78
2022/05/07 12:35:21;;;;;;;2.83;1.90;;;16.60;77.60;;;;;;5001357;28;20030;-78
2022/05/07 12:37:47;;;;;;;3.42;1.67;;;16.80;77.70;;;;;;5004171;28;20419;-78
2022/05/07 12:40:12;;;;;;;2.55;1.80;;;16.90;75.70;;;;;;5031948;28;20034;-76
2022/05/07 12:42:39;;;;;;;3.17;1.70;;;17.10;76.20;;;;;;5003420;28;20045;-76
2022/05/07 12:45:06;;;;;;;4.22;2.22;;;17.40;75.00;;;;;;5004499;28;20388;-77
2022/05/07 12:47:32;;;;;;;3.08;2.05;;;17.80;74.30;;;;;;5005026;28;20029;-76
2022/05/07 12:49:57;;;;;;;3.55;2.35;;;18.10;74.40;;;;;;5000430;28;20040;-77
2022/05/07 12:52:23;;;;;;;3.45;2.20;;;18.40;71.30;;;;;;5004106;28;20092;-78
2022/05/07 12:54:49;;;;;;;4.20;2.28;;;18.80;69.30;;;;;;5000549;28;20053;-77
2022/05/07 12:57:15;;;;;;;3.75;2.63;;;19.20;69.50;;;;;;5002035;28;20772;-76
2022/05/07 12:59:42;;;;;;;4.10;2.20;;;19.10;67.10;;;;;;5015652;28;20058;-77
2022/05/07 13:02:11;;;;;;;4.25;2.65;;;19.30;70.00;;;;;;4999855;28;20030;-77
2022/05/07 13:04:37;;;;;;;3.42;2.40;;;19.40;68.80;;;;;;5002206;28;20034;-76
2022/05/07 13:07:03;;;;;;;3.90;2.60;;;19.60;66.50;;;;;;5004621;28;20033;-76
2022/05/07 13:09:29;;;;;;;5.25;3.00;;;19.90;67.60;;;;;;5025918;28;20041;-78
2022/05/07 13:11:56;;;;;;;5.25;3.20;;;20.10;64.90;;;;;;4993710;28;20049;-76
2022/05/07 13:14:22;;;;;;;5.03;2.85;;;20.10;64.60;;;;;;5002647;28;20528;-75
2022/05/07 13:16:48;;;;;;;4.63;2.28;;;19.80;62.80;;;;;;4998356;28;20041;-76
2022/05/07 13:19:14;;;;;;;5.38;2.58;;;19.60;65.50;;;;;;4999574;28;20897;-77
2022/05/07 13:21:44;;;;;;;4.38;2.42;;;19.40;65.60;;;;;;4992699;28;20104;-76
2022/05/07 13:24:11;;;;;;;3.33;1.90;;;19.30;64.10;;;;;;4999491;28;20080;-76